createdAt,value
2022-12-24T00:00:49.685Z,4.68
2022-12-24T00:03:21.649Z,4.71
2022-12-24T00:05:54.157Z,4.77
2022-12-24T00:08:24.804Z,4.76
2022-12-24T00:10:57.459Z,4.80
2022-12-24T00:13:31.810Z,4.74
2022-12-24T00:16:01.510Z,4.68
2022-12-24T00:18:32.063Z,4.59
2022-12-24T00:21:02.298Z,4.52
2022-12-24T00:23:34.524Z,4.47
2022-12-24T00:26:03.937Z,4.44
2022-12-24T00:28:33.037Z,4.35
2022-12-24T00:31:18.711Z,4.26
2022-12-24T00:33:50.564Z,4.13
2022-12-24T00:36:21.212Z,4.11
2022-12-24T00:38:53.463Z,4.08
2022-12-24T00:41:25.725Z,4.07
2022-12-24T00:44:10.596Z,4.09
2022-12-24T00:50:59.045Z,4.16
2022-12-24T00:53:28.896Z,4.15
2022-12-24T00:55:59.070Z,4.16
2022-12-24T00:58:33.532Z,4.22
2022-12-24T01:01:06.898Z,4.24
2022-12-24T01:03:37.058Z,4.24
2022-12-24T01:06:18.528Z,4.27
2022-12-24T01:08:52.063Z,4.35
2022-12-24T01:11:22.386Z,4.42
2022-12-24T01:13:56.045Z,4.46
2022-12-24T01:16:26.344Z,4.45
2022-12-24T01:18:55.508Z,4.46
2022-12-24T01:21:26.107Z,4.54
2022-12-24T01:23:55.286Z,4.60
2022-12-24T01:26:26.117Z,4.61
2022-12-24T01:28:55.294Z,4.50
2022-12-24T01:31:26.905Z,4.47
2022-12-24T01:33:57.320Z,4.51
2022-12-24T01:36:30.281Z,4.59
2022-12-24T01:39:00.209Z,4.61
2022-12-24T01:41:50.546Z,4.66
2022-12-24T01:44:35.623Z,4.73
2022-12-24T01:48:24.501Z,4.79
2022-12-24T01:51:19.738Z,4.84
2022-12-24T01:53:55.522Z,4.85
2022-12-24T01:56:26.982Z,4.77
2022-12-24T01:59:01.807Z,4.59
2022-12-24T02:01:33.110Z,4.46
2022-12-24T02:04:12.771Z,4.37
2022-12-24T02:06:41.912Z,4.29
2022-12-24T02:09:12.832Z,4.26
2022-12-24T02:11:45.297Z,4.25
2022-12-24T02:14:15.967Z,4.20
2022-12-24T02:17:14.205Z,4.13
2022-12-24T02:20:14.151Z,4.12
2022-12-24T02:22:54.754Z,4.18
2022-12-24T02:25:42.036Z,4.17
2022-12-24T02:28:25.736Z,4.23
2022-12-24T02:31:06.828Z,4.30
2022-12-24T02:33:47.826Z,4.35
2022-12-24T02:36:35.904Z,4.41
2022-12-24T02:39:21.316Z,4.39
2022-12-24T02:42:06.783Z,4.34
2022-12-24T02:44:46.737Z,4.33
2022-12-24T02:47:39.332Z,4.22
2022-12-24T02:50:11.364Z,4.13
2022-12-24T02:52:43.732Z,4.05
2022-12-24T02:55:48.032Z,4.01
2022-12-24T02:58:38.928Z,4.03
2022-12-24T03:01:39.907Z,3.96
2022-12-24T03:04:18.875Z,3.94
2022-12-24T03:07:05.652Z,3.99
2022-12-24T03:10:16.317Z,4.03
2022-12-24T03:13:02.617Z,4.05
2022-12-24T03:15:33.780Z,4.09
2022-12-24T03:18:04.267Z,4.10
2022-12-24T03:20:47.299Z,4.09
2022-12-24T03:23:20.219Z,4.05
2022-12-24T03:25:50.536Z,3.96
2022-12-24T03:28:24.999Z,3.84
2022-12-24T03:30:55.151Z,3.79
2022-12-24T03:33:27.107Z,3.76
2022-12-24T03:35:56.350Z,3.79
2022-12-24T03:38:26.459Z,3.82
2022-12-24T03:40:58.474Z,3.81
2022-12-24T03:43:29.149Z,3.84
2022-12-24T03:45:59.378Z,3.89
2022-12-24T03:48:32.727Z,3.93
2022-12-24T03:51:05.374Z,3.95
2022-12-24T03:53:35.380Z,3.98
2022-12-24T03:56:10.528Z,4.00
2022-12-24T03:58:41.905Z,4.00
2022-12-24T04:01:11.698Z,4.02
2022-12-24T04:03:42.543Z,4.02
2022-12-24T04:06:15.117Z,4.04
2022-12-24T04:08:44.923Z,4.02
2022-12-24T04:11:17.169Z,3.89
2022-12-24T04:13:46.966Z,3.75
2022-12-24T04:16:17.224Z,3.66
2022-12-24T04:18:47.764Z,3.65
2022-12-24T04:21:17.207Z,3.66
2022-12-24T04:23:48.877Z,3.65
2022-12-24T04:26:19.620Z,3.64
2022-12-24T04:28:49.144Z,3.60
2022-12-24T04:31:20.719Z,3.57
2022-12-24T04:33:53.795Z,3.54
2022-12-24T04:36:22.991Z,3.50
2022-12-24T04:38:53.459Z,3.47
2022-12-24T04:41:26.164Z,3.41
2022-12-24T04:43:56.245Z,3.37
2022-12-24T04:46:52.473Z,3.34
2022-12-24T04:49:21.678Z,3.28
2022-12-24T04:51:52.379Z,3.23
2022-12-24T04:54:21.913Z,3.17
2022-12-24T04:56:51.919Z,3.12
2022-12-24T04:59:22.480Z,3.07
2022-12-24T05:01:51.820Z,3.00
2022-12-24T05:04:21.040Z,2.95
2022-12-24T05:06:51.893Z,2.88
2022-12-24T05:09:22.618Z,2.82
2022-12-24T05:11:51.646Z,2.77
2022-12-24T05:14:20.657Z,2.72
2022-12-24T05:16:49.839Z,2.66
2022-12-24T05:19:18.965Z,2.60
2022-12-24T05:22:10.584Z,2.57
2022-12-24T05:24:58.313Z,2.56
2022-12-24T05:27:30.999Z,2.50
2022-12-24T05:30:00.650Z,2.46
2022-12-24T05:32:30.922Z,2.42
2022-12-24T05:35:00.840Z,2.41
2022-12-24T05:37:30.141Z,2.35
2022-12-24T05:39:59.586Z,2.30
2022-12-24T05:42:29.948Z,2.30
2022-12-24T05:45:28.112Z,2.29
2022-12-24T05:47:57.415Z,2.29
2022-12-24T05:50:29.864Z,2.30
2022-12-24T05:53:08.226Z,2.30
2022-12-24T05:55:38.135Z,2.30
2022-12-24T05:58:08.523Z,2.30
2022-12-24T06:00:39.786Z,2.29
2022-12-24T06:03:12.481Z,2.28
2022-12-24T06:05:45.268Z,2.27
2022-12-24T06:08:14.286Z,2.21
2022-12-24T06:10:44.841Z,2.05
2022-12-24T06:13:14.171Z,1.88
2022-12-24T06:15:43.074Z,1.83
2022-12-24T06:18:12.252Z,1.84
2022-12-24T06:20:42.040Z,1.86
2022-12-24T06:23:11.425Z,1.86
2022-12-24T06:25:40.675Z,1.84
2022-12-24T06:28:11.484Z,1.86
2022-12-24T06:30:42.886Z,1.85
2022-12-24T06:33:12.641Z,1.82
2022-12-24T06:35:42.119Z,1.65
2022-12-24T06:38:11.265Z,1.43
2022-12-24T06:40:43.656Z,1.23
2022-12-24T06:43:14.239Z,1.14
2022-12-24T06:45:48.964Z,1.14
2022-12-24T06:48:18.177Z,1.17
2022-12-24T06:50:49.160Z,1.19
2022-12-24T06:53:18.607Z,1.26
2022-12-24T06:55:48.876Z,1.34
2022-12-24T06:58:20.722Z,1.43
2022-12-24T07:00:52.166Z,1.52
2022-12-24T07:03:35.489Z,1.60
2022-12-24T07:06:29.112Z,1.68
2022-12-24T07:09:29.806Z,1.74
2022-12-24T07:12:04.470Z,1.79
2022-12-24T07:14:44.967Z,1.87
2022-12-24T07:17:18.352Z,1.93
2022-12-24T07:20:08.208Z,1.96
2022-12-24T07:22:46.481Z,1.99
2022-12-24T07:25:18.842Z,1.99
2022-12-24T07:27:49.723Z,2.00
2022-12-24T07:30:37.442Z,2.03
2022-12-24T07:33:32.450Z,2.09
2022-12-24T07:36:29.802Z,2.12
2022-12-24T07:39:12.017Z,2.18
2022-12-24T07:41:42.575Z,2.22
2022-12-24T07:44:18.863Z,2.21
2022-12-24T07:51:05.938Z,2.34
2022-12-24T07:54:26.051Z,2.34
2022-12-24T07:57:00.730Z,2.39
2022-12-24T07:59:36.094Z,2.41
2022-12-24T08:02:14.276Z,2.42
2022-12-24T08:05:06.940Z,2.42
2022-12-24T08:07:42.759Z,2.44
2022-12-24T08:10:16.364Z,2.44
2022-12-24T08:12:47.464Z,2.43
2022-12-24T08:15:19.680Z,2.44
2022-12-24T08:20:57.953Z,2.52
2022-12-24T08:23:31.509Z,2.56
2022-12-24T08:26:02.771Z,2.58
2022-12-24T08:28:31.793Z,2.63
2022-12-24T08:31:00.923Z,2.71
2022-12-24T08:33:32.222Z,2.82
2022-12-24T08:36:04.056Z,2.94
2022-12-24T08:38:34.215Z,2.99
2022-12-24T08:41:06.416Z,3.09
2022-12-24T08:43:42.305Z,3.23
2022-12-24T08:51:12.502Z,3.57
2022-12-24T08:53:45.951Z,3.65
2022-12-24T08:56:33.760Z,3.73
2022-12-24T08:59:09.402Z,3.79
2022-12-24T09:01:51.602Z,3.86
2022-12-24T09:04:29.002Z,3.90
2022-12-24T09:06:59.758Z,4.00
2022-12-24T09:09:36.061Z,4.13
2022-12-24T09:12:11.929Z,4.96
2022-12-24T09:15:04.146Z,6.04
2022-12-24T09:17:36.465Z,8.27
2022-12-24T09:20:46.986Z,10.72
2022-12-24T09:44:25.483Z,19.05
2022-12-24T09:52:46.458Z,21.35
2022-12-24T09:55:30.648Z,22.25
2022-12-24T10:03:33.175Z,23.77
2022-12-24T10:16:26.005Z,24.45
2022-12-24T10:19:20.850Z,24.59
2022-12-24T10:22:24.850Z,24.64
2022-12-24T10:43:45.279Z,24.32
2022-12-24T10:51:26.385Z,24.22
2022-12-24T10:54:11.791Z,24.13
2022-12-24T10:56:45.249Z,24.41
2022-12-24T10:59:45.400Z,24.64
2022-12-24T11:02:40.980Z,24.63
2022-12-24T11:05:35.609Z,23.62
2022-12-24T11:08:36.947Z,22.44
2022-12-24T11:11:14.440Z,20.45
2022-12-24T11:13:52.996Z,18.10
2022-12-24T11:16:32.952Z,16.21
2022-12-24T11:19:05.305Z,14.79
2022-12-24T11:21:43.877Z,13.70
2022-12-24T11:24:34.589Z,12.57
2022-12-24T11:27:23.662Z,11.79
2022-12-24T11:30:13.454Z,11.32
2022-12-24T11:32:48.737Z,10.77
2022-12-24T11:35:27.141Z,10.28
2022-12-24T11:38:01.658Z,9.91
2022-12-24T11:41:22.766Z,9.47
2022-12-24T11:44:00.593Z,8.84
2022-12-24T11:46:42.102Z,8.53
2022-12-24T11:49:14.912Z,8.34
2022-12-24T11:52:13.683Z,8.13
2022-12-24T11:55:08.960Z,7.93
2022-12-24T11:58:13.941Z,7.91
2022-12-24T12:00:46.621Z,7.92
2022-12-24T12:03:42.238Z,7.91
2022-12-24T12:06:54.096Z,7.83
2022-12-24T12:43:54.627Z,6.76
2022-12-24T13:13:24.008Z,5.16
2022-12-24T13:16:39.655Z,5.17
2022-12-24T13:19:47.017Z,5.17
2022-12-24T13:22:28.366Z,5.15
2022-12-24T13:25:22.481Z,5.12
2022-12-24T13:28:37.716Z,5.07
2022-12-24T13:31:23.505Z,5.03
2022-12-24T13:34:03.978Z,5.01
2022-12-24T13:37:46.124Z,5.00
2022-12-24T13:40:23.151Z,4.98
2022-12-24T13:43:09.566Z,4.95
2022-12-24T13:46:10.159Z,4.88
2022-12-24T13:48:42.038Z,4.80
2022-12-24T13:51:25.786Z,4.54
2022-12-24T13:54:01.408Z,4.19
2022-12-24T13:56:38.547Z,3.84
2022-12-24T13:59:37.855Z,3.49
2022-12-24T14:02:22.809Z,3.21
2022-12-24T14:04:54.177Z,3.01
2022-12-24T14:07:35.026Z,2.81
2022-12-24T14:10:07.885Z,2.67
2022-12-24T14:12:51.115Z,2.60
2022-12-24T14:15:51.940Z,2.46
2022-12-24T14:18:25.553Z,2.32
2022-12-24T14:21:00.177Z,2.19
2022-12-24T14:23:54.085Z,2.08
2022-12-24T14:26:28.310Z,2.03
2022-12-24T14:29:34.461Z,2.02
2022-12-24T14:32:16.805Z,2.03
2022-12-24T14:34:50.275Z,2.10
2022-12-24T14:37:30.209Z,2.18
2022-12-24T14:40:08.112Z,2.25
2022-12-24T14:43:24.332Z,2.29
2022-12-24T14:46:49.770Z,2.30
2022-12-24T14:50:05.722Z,2.17
2022-12-24T14:53:04.688Z,1.99
2022-12-24T14:55:45.534Z,1.95
2022-12-24T14:58:34.577Z,1.91
2022-12-24T15:01:28.258Z,1.94
2022-12-24T15:04:24.568Z,2.02
2022-12-24T15:07:18.702Z,2.06
2022-12-24T15:11:01.307Z,2.02
2022-12-24T15:13:40.704Z,1.78
2022-12-24T15:16:24.441Z,1.63
2022-12-24T15:19:21.707Z,1.57
2022-12-24T15:21:52.102Z,1.50
2022-12-24T15:24:28.498Z,1.44
2022-12-24T15:27:09.353Z,1.44
2022-12-24T15:30:17.218Z,1.42
2022-12-24T16:06:57.955Z,1.05
2022-12-24T16:09:45.827Z,0.98
2022-12-24T16:12:20.178Z,0.87
2022-12-24T16:18:59.513Z,0.73
2022-12-24T17:58:43.160Z,0.37
2022-12-24T18:01:12.442Z,0.39
2022-12-24T18:03:41.652Z,0.40
2022-12-24T18:06:12.731Z,0.39
2022-12-24T18:08:45.380Z,0.38
2022-12-24T18:11:21.117Z,0.37
2022-12-24T18:13:54.848Z,0.37
2022-12-24T18:16:31.000Z,0.33
2022-12-24T18:19:00.833Z,0.31
2022-12-24T18:21:32.476Z,0.28
2022-12-24T18:24:02.262Z,0.26
2022-12-24T18:26:32.950Z,0.24
2022-12-24T18:29:08.364Z,0.23
2022-12-24T18:31:36.779Z,0.21
2022-12-24T18:34:08.534Z,0.18
2022-12-24T18:36:38.063Z,0.15
2022-12-24T18:39:09.790Z,0.16
2022-12-24T18:41:39.849Z,0.20
2022-12-24T18:44:09.677Z,0.23
2022-12-24T18:46:42.498Z,0.25
2022-12-24T18:49:12.729Z,0.22
2022-12-24T18:51:42.590Z,0.18
2022-12-24T18:54:12.452Z,0.15
2022-12-24T18:56:42.534Z,0.15
2022-12-24T18:59:12.713Z,0.16
2022-12-24T19:01:43.321Z,0.19
2022-12-24T19:04:14.622Z,0.21
2022-12-24T19:06:52.755Z,0.23
2022-12-24T19:09:22.716Z,0.27
2022-12-24T19:11:54.500Z,0.27
2022-12-24T19:14:24.845Z,0.26
2022-12-24T19:16:56.275Z,0.25
2022-12-24T19:19:24.301Z,0.25
2022-12-24T19:21:52.342Z,0.26
2022-12-24T19:24:25.953Z,0.30
2022-12-24T19:26:54.197Z,0.33
2022-12-24T19:29:22.945Z,0.34
2022-12-24T19:31:53.181Z,0.36
2022-12-24T19:34:21.037Z,0.36
2022-12-24T19:36:51.203Z,0.35
2022-12-24T19:39:20.067Z,0.33
2022-12-24T19:41:49.308Z,0.30
2022-12-24T19:44:20.342Z,0.28
2022-12-24T19:46:50.494Z,0.27
2022-12-24T19:49:18.483Z,0.26
2022-12-24T19:51:46.441Z,0.27
2022-12-24T19:54:18.871Z,0.28
2022-12-24T19:56:47.237Z,0.28
2022-12-24T19:59:16.490Z,0.28
2022-12-24T20:01:45.799Z,0.30
2022-12-24T20:04:18.051Z,0.36
2022-12-24T20:06:47.966Z,0.37
2022-12-24T20:09:18.021Z,0.39
2022-12-24T20:11:45.912Z,0.43
2022-12-24T20:14:18.684Z,0.44
2022-12-24T20:16:47.116Z,0.47
2022-12-24T20:19:15.465Z,0.49
2022-12-24T20:21:46.311Z,0.51
2022-12-24T20:24:17.443Z,0.52
2022-12-24T20:26:48.088Z,0.53
2022-12-24T20:29:16.120Z,0.53
2022-12-24T20:31:44.048Z,0.54
2022-12-24T20:34:14.570Z,0.56
2022-12-24T20:36:42.375Z,0.55
2022-12-24T20:39:12.998Z,0.53
2022-12-24T20:41:40.871Z,0.52
2022-12-24T20:44:11.726Z,0.48
2022-12-24T20:46:46.371Z,0.45
2022-12-24T20:49:15.679Z,0.42
2022-12-24T20:51:45.215Z,0.38
2022-12-24T20:54:17.023Z,0.35
2022-12-24T20:56:46.997Z,0.33
2022-12-24T20:59:28.126Z,0.31
2022-12-24T21:01:57.302Z,0.32
2022-12-24T21:04:25.119Z,0.34
2022-12-24T21:06:56.357Z,0.36
2022-12-24T21:09:26.111Z,0.37
2022-12-24T21:11:53.655Z,0.36
2022-12-24T21:14:29.214Z,0.37
2022-12-24T21:17:15.794Z,0.39
2022-12-24T21:19:47.327Z,0.40
2022-12-24T21:22:37.302Z,0.40
2022-12-24T21:25:15.336Z,0.39
2022-12-24T21:27:43.358Z,0.39
2022-12-24T21:30:17.594Z,0.39
2022-12-24T21:33:00.386Z,0.41
2022-12-24T21:35:37.675Z,0.42
2022-12-24T21:38:14.321Z,0.41
2022-12-24T21:40:47.029Z,0.40
2022-12-24T21:43:17.616Z,0.41
2022-12-24T21:46:15.166Z,0.43
2022-12-24T21:49:03.481Z,0.47
2022-12-24T21:51:37.885Z,0.50
2022-12-24T21:54:30.242Z,0.53
2022-12-24T21:57:21.394Z,0.55
2022-12-24T21:59:52.527Z,0.57
2022-12-24T22:02:27.308Z,0.56
2022-12-24T22:04:56.061Z,0.55
2022-12-24T22:07:47.365Z,0.56
2022-12-24T22:10:49.471Z,0.59
2022-12-24T22:13:29.459Z,0.61
2022-12-24T22:16:01.233Z,0.62
2022-12-24T22:18:37.017Z,0.64
2022-12-24T22:21:05.839Z,0.68
2022-12-24T22:23:38.541Z,0.71
2022-12-24T22:26:16.067Z,0.72
2022-12-24T22:28:44.060Z,0.70
2022-12-24T22:31:23.477Z,0.69
2022-12-24T22:33:55.357Z,0.68
2022-12-24T22:36:24.458Z,0.67
2022-12-24T22:38:59.386Z,0.69
2022-12-24T22:41:29.852Z,0.71
2022-12-24T22:43:58.806Z,0.71
2022-12-24T22:47:16.167Z,0.69
2022-12-24T22:49:44.648Z,0.69
2022-12-24T22:52:17.697Z,0.71
2022-12-24T22:54:48.763Z,0.73
2022-12-24T22:57:24.685Z,0.73
2022-12-24T23:00:48.904Z,0.73
2022-12-24T23:03:33.588Z,0.72
2022-12-24T23:06:41.066Z,0.72
2022-12-24T23:09:33.709Z,0.72
2022-12-24T23:12:17.614Z,0.72
2022-12-24T23:15:06.560Z,0.73
2022-12-24T23:18:20.640Z,0.77
2022-12-24T23:21:24.470Z,0.81
2022-12-24T23:24:06.035Z,0.90
2022-12-24T23:26:34.173Z,0.92
2022-12-24T23:29:01.834Z,0.90
2022-12-24T23:31:34.301Z,0.88
2022-12-24T23:34:06.476Z,0.85
2022-12-24T23:36:35.207Z,0.86
2022-12-24T23:39:03.705Z,0.85
2022-12-24T23:41:34.091Z,0.85
2022-12-24T23:44:03.803Z,0.87
2022-12-24T23:46:32.101Z,0.88
2022-12-24T23:48:59.978Z,0.89
2022-12-24T23:51:29.715Z,0.90
2022-12-24T23:53:57.751Z,0.92
2022-12-24T23:56:26.038Z,0.93
2022-12-24T23:58:53.812Z,0.94
